Overview Statistics Trail Chart Weather Telemetry Raw packets
 

This is the latest recevied weather packets stored in our database for station/object Ostrach. If no packets are shown the sender has not sent any weather packets the latest 10 day(s).

<< 12 13 14 15 16 17 18 >>
Time Temp. Humidity Pressure Rain* Wind** Luminosity Snow
1788089530 25° C 57% 1013 hPa 0 mm - - -
1788087732 25° C 59% 1013.2 hPa 0 mm - - -
1788085930 23.89° C 63% 1013.6 hPa 0 mm - - -
1788084130 23.89° C 61% 1014 hPa 0 mm - - -
1788082330 23.33° C 61% 1014 hPa 0 mm - - -
1788080531 23.33° C 64% 1014.1 hPa 0 mm - - -
1788078729 22.22° C 65% 1014.2 hPa 0 mm - - -
1788076929 21.67° C 67% 1014.2 hPa 0 mm - - -
1788075130 20° C 70% 1014.1 hPa 0 mm - - -
1788073329 18.89° C 73% 1014.1 hPa 0 mm - - -
1788071530 17.78° C 79% 1014.1 hPa 0 mm - - -
1788069730 15.56° C 88% 1014.2 hPa 0 mm - - -
1788067930 14.44° C 87% 1014 hPa 0 mm - - -
1788066130 15° C 85% 1013.8 hPa 0 mm - - -
1788064329 15.56° C 83% 1013.7 hPa 0 mm - - -
1788062529 15.56° C 84% 1013.7 hPa 0 mm - - -
1788060729 15.56° C 85% 1013.6 hPa 0 mm - - -
1788058929 15.56° C 85% 1013.6 hPa 0 mm - - -
1788057129 15.56° C 85% 1013.6 hPa 0 mm - - -
1788055329 16.11° C 84% 1013.7 hPa 0 mm - - -
1788053529 15.56° C 85% 1013.7 hPa 0 mm - - -
1788051729 15.56° C 88% 1013.9 hPa 0 mm - - -
1788049931 15.56° C 87% 1013.9 hPa 0 mm - - -
1788048131 15.56° C 85% 1013.9 hPa 0 mm - - -
1788046331 15.56° C 85% 1013.9 hPa 0 mm - - -

* Rain since midnight (hover to see other rain measurements)
** Current wind speed in m/s (hover to see current wind gust speed)